sensor_id;sensor_type;location;lat;lon;timestamp;P1;durP1;ratioP1;P2;durP2;ratioP2
75932;SDS011;64803;52.356;5.310;2023-03-01T00:01:59;27.30;;;11.57;;
75932;SDS011;64803;52.356;5.310;2023-03-01T00:04:25;26.35;;;10.65;;
75932;SDS011;64803;52.356;5.310;2023-03-01T00:06:51;24.20;;;10.35;;
75932;SDS011;64803;52.356;5.310;2023-03-01T00:09:17;21.27;;;9.88;;
75932;SDS011;64803;52.356;5.310;2023-03-01T00:11:43;24.23;;;10.63;;
75932;SDS011;64803;52.356;5.310;2023-03-01T00:14:09;23.55;;;10.13;;
75932;SDS011;64803;52.356;5.310;2023-03-01T00:16:36;22.92;;;10.48;;
75932;SDS011;64803;52.356;5.310;2023-03-01T00:19:05;21.13;;;10.18;;
75932;SDS011;64803;52.356;5.310;2023-03-01T00:21:32;25.02;;;9.25;;
75932;SDS011;64803;52.356;5.310;2023-03-01T00:23:59;20.23;;;9.52;;
75932;SDS011;64803;52.356;5.310;2023-03-01T00:26:25;22.00;;;10.38;;
75932;SDS011;64803;52.356;5.310;2023-03-01T00:28:51;23.90;;;9.55;;
75932;SDS011;64803;52.356;5.310;2023-03-01T00:31:22;21.52;;;9.38;;
75932;SDS011;64803;52.356;5.310;2023-03-01T00:33:52;22.95;;;10.07;;
75932;SDS011;64803;52.356;5.310;2023-03-01T00:36:23;21.67;;;10.23;;
75932;SDS011;64803;52.356;5.310;2023-03-01T00:38:51;22.27;;;10.45;;
75932;SDS011;64803;52.356;5.310;2023-03-01T00:41:17;25.35;;;10.65;;
75932;SDS011;64803;52.356;5.310;2023-03-01T00:43:48;24.83;;;9.50;;
75932;SDS011;64803;52.356;5.310;2023-03-01T00:46:16;20.98;;;10.00;;
75932;SDS011;64803;52.356;5.310;2023-03-01T00:48:43;20.92;;;9.57;;
75932;SDS011;64803;52.356;5.310;2023-03-01T00:51:18;19.83;;;9.00;;
75932;SDS011;64803;52.356;5.310;2023-03-01T00:53:53;18.13;;;7.53;;
75932;SDS011;64803;52.356;5.310;2023-03-01T00:56:21;20.98;;;9.10;;
75932;SDS011;64803;52.356;5.310;2023-03-01T00:58:47;22.38;;;9.20;;
75932;SDS011;64803;52.356;5.310;2023-03-01T01:01:14;25.85;;;10.93;;
75932;SDS011;64803;52.356;5.310;2023-03-01T01:03:50;21.88;;;10.27;;
75932;SDS011;64803;52.356;5.310;2023-03-01T01:06:21;26.02;;;11.43;;
75932;SDS011;64803;52.356;5.310;2023-03-01T01:09:14;23.83;;;10.05;;
75932;SDS011;64803;52.356;5.310;2023-03-01T01:11:43;26.75;;;10.70;;
75932;SDS011;64803;52.356;5.310;2023-03-01T01:14:10;27.30;;;11.85;;
75932;SDS011;64803;52.356;5.310;2023-03-01T01:16:37;21.88;;;9.27;;
75932;SDS011;64803;52.356;5.310;2023-03-01T01:19:03;22.80;;;10.95;;
75932;SDS011;64803;52.356;5.310;2023-03-01T01:21:29;29.90;;;12.02;;
75932;SDS011;64803;52.356;5.310;2023-03-01T01:23:56;24.50;;;10.45;;
75932;SDS011;64803;52.356;5.310;2023-03-01T01:26:27;22.52;;;10.63;;
75932;SDS011;64803;52.356;5.310;2023-03-01T01:28:55;27.85;;;10.98;;
75932;SDS011;64803;52.356;5.310;2023-03-01T01:31:22;25.55;;;11.40;;
75932;SDS011;64803;52.356;5.310;2023-03-01T01:33:52;23.15;;;9.20;;
75932;SDS011;64803;52.356;5.310;2023-03-01T01:36:18;28.75;;;11.23;;
75932;SDS011;64803;52.356;5.310;2023-03-01T01:38:45;28.92;;;11.40;;
75932;SDS011;64803;52.356;5.310;2023-03-01T01:41:11;25.42;;;9.52;;
75932;SDS011;64803;52.356;5.310;2023-03-01T01:43:39;27.15;;;11.45;;
75932;SDS011;64803;52.356;5.310;2023-03-01T01:48:47;24.98;;;10.98;;
75932;SDS011;64803;52.356;5.310;2023-03-01T01:51:19;23.80;;;10.25;;
75932;SDS011;64803;52.356;5.310;2023-03-01T01:53:50;28.17;;;11.98;;
75932;SDS011;64803;52.356;5.310;2023-03-01T01:56:20;26.88;;;12.70;;
75932;SDS011;64803;52.356;5.310;2023-03-01T01:58:48;30.08;;;12.80;;
75932;SDS011;64803;52.356;5.310;2023-03-01T02:01:15;25.67;;;10.80;;
75932;SDS011;64803;52.356;5.310;2023-03-01T02:03:42;22.90;;;11.23;;
75932;SDS011;64803;52.356;5.310;2023-03-01T02:06:12;23.55;;;9.45;;
75932;SDS011;64803;52.356;5.310;2023-03-01T02:08:43;28.35;;;11.05;;
75932;SDS011;64803;52.356;5.310;2023-03-01T02:11:13;27.83;;;11.77;;
75932;SDS011;64803;52.356;5.310;2023-03-01T02:13:42;28.92;;;11.95;;
75932;SDS011;64803;52.356;5.310;2023-03-01T02:16:09;29.30;;;12.10;;
75932;SDS011;64803;52.356;5.310;2023-03-01T02:18:39;25.73;;;11.43;;
75932;SDS011;64803;52.356;5.310;2023-03-01T02:23:53;29.60;;;11.27;;
75932;SDS011;64803;52.356;5.310;2023-03-01T02:29:13;28.75;;;12.18;;
75932;SDS011;64803;52.356;5.310;2023-03-01T02:31:40;31.40;;;11.10;;
75932;SDS011;64803;52.356;5.310;2023-03-01T02:34:18;24.10;;;10.68;;
75932;SDS011;64803;52.356;5.310;2023-03-01T02:36:57;27.40;;;11.07;;
75932;SDS011;64803;52.356;5.310;2023-03-01T02:39:32;24.90;;;10.07;;
75932;SDS011;64803;52.356;5.310;2023-03-01T02:42:03;29.13;;;10.10;;
75932;SDS011;64803;52.356;5.310;2023-03-01T02:44:30;25.50;;;10.90;;
75932;SDS011;64803;52.356;5.310;2023-03-01T02:46:56;26.65;;;11.93;;
75932;SDS011;64803;52.356;5.310;2023-03-01T02:49:30;27.45;;;10.80;;
75932;SDS011;64803;52.356;5.310;2023-03-01T02:57:32;31.33;;;11.70;;
75932;SDS011;64803;52.356;5.310;2023-03-01T03:00:02;27.92;;;11.45;;
75932;SDS011;64803;52.356;5.310;2023-03-01T03:02:36;28.35;;;11.85;;
75932;SDS011;64803;52.356;5.310;2023-03-01T03:05:08;31.25;;;11.93;;
75932;SDS011;64803;52.356;5.310;2023-03-01T03:07:46;30.10;;;12.18;;
75932;SDS011;64803;52.356;5.310;2023-03-01T03:10:15;25.02;;;10.05;;
75932;SDS011;64803;52.356;5.310;2023-03-01T03:12:48;27.30;;;11.65;;
75932;SDS011;64803;52.356;5.310;2023-03-01T03:15:16;25.67;;;10.20;;
75932;SDS011;64803;52.356;5.310;2023-03-01T03:17:43;29.65;;;10.45;;
75932;SDS011;64803;52.356;5.310;2023-03-01T03:20:11;30.63;;;12.13;;
75932;SDS011;64803;52.356;5.310;2023-03-01T03:22:39;30.55;;;11.98;;
75932;SDS011;64803;52.356;5.310;2023-03-01T03:25:06;35.25;;;12.45;;
75932;SDS011;64803;52.356;5.310;2023-03-01T03:27:36;23.70;;;10.52;;
75932;SDS011;64803;52.356;5.310;2023-03-01T03:30:04;26.33;;;9.93;;
75932;SDS011;64803;52.356;5.310;2023-03-01T03:32:41;34.47;;;12.32;;
75932;SDS011;64803;52.356;5.310;2023-03-01T03:35:21;31.45;;;10.52;;
75932;SDS011;64803;52.356;5.310;2023-03-01T03:37:52;25.05;;;10.63;;
75932;SDS011;64803;52.356;5.310;2023-03-01T03:40:34;25.27;;;10.50;;
75932;SDS011;64803;52.356;5.310;2023-03-01T03:43:03;24.75;;;10.32;;
75932;SDS011;64803;52.356;5.310;2023-03-01T03:45:31;29.45;;;11.20;;
75932;SDS011;64803;52.356;5.310;2023-03-01T03:47:59;30.25;;;11.65;;
75932;SDS011;64803;52.356;5.310;2023-03-01T03:50:25;24.23;;;10.93;;
75932;SDS011;64803;52.356;5.310;2023-03-01T03:52:51;32.25;;;11.60;;
75932;SDS011;64803;52.356;5.310;2023-03-01T03:55:18;24.70;;;11.45;;
75932;SDS011;64803;52.356;5.310;2023-03-01T03:57:45;25.50;;;10.63;;
75932;SDS011;64803;52.356;5.310;2023-03-01T04:00:20;27.10;;;11.20;;
75932;SDS011;64803;52.356;5.310;2023-03-01T04:02:49;28.08;;;11.00;;
75932;SDS011;64803;52.356;5.310;2023-03-01T04:05:17;26.67;;;12.30;;
75932;SDS011;64803;52.356;5.310;2023-03-01T04:07:44;27.83;;;11.88;;
75932;SDS011;64803;52.356;5.310;2023-03-01T04:10:12;25.40;;;11.13;;
75932;SDS011;64803;52.356;5.310;2023-03-01T04:12:39;33.60;;;12.80;;
75932;SDS011;64803;52.356;5.310;2023-03-01T04:15:06;31.30;;;12.05;;
75932;SDS011;64803;52.356;5.310;2023-03-01T04:17:43;25.13;;;10.65;;
75932;SDS011;64803;52.356;5.310;2023-03-01T04:20:14;25.33;;;10.32;;
75932;SDS011;64803;52.356;5.310;2023-03-01T04:22:52;27.00;;;10.55;;
75932;SDS011;64803;52.356;5.310;2023-03-01T04:30:17;23.70;;;10.15;;
75932;SDS011;64803;52.356;5.310;2023-03-01T04:32:43;27.90;;;11.35;;
75932;SDS011;64803;52.356;5.310;2023-03-01T04:35:09;26.33;;;10.80;;
75932;SDS011;64803;52.356;5.310;2023-03-01T04:37:35;31.20;;;11.88;;
75932;SDS011;64803;52.356;5.310;2023-03-01T04:40:04;28.90;;;10.57;;
75932;SDS011;64803;52.356;5.310;2023-03-01T04:42:41;30.25;;;12.05;;
75932;SDS011;64803;52.356;5.310;2023-03-01T04:45:08;26.67;;;11.15;;
75932;SDS011;64803;52.356;5.310;2023-03-01T04:47:39;30.88;;;12.45;;
75932;SDS011;64803;52.356;5.310;2023-03-01T04:50:10;30.40;;;11.82;;
75932;SDS011;64803;52.356;5.310;2023-03-01T04:52:38;24.98;;;10.25;;
75932;SDS011;64803;52.356;5.310;2023-03-01T04:55:04;22.02;;;9.27;;
75932;SDS011;64803;52.356;5.310;2023-03-01T04:57:31;24.13;;;9.70;;
75932;SDS011;64803;52.356;5.310;2023-03-01T04:59:57;23.02;;;10.13;;
75932;SDS011;64803;52.356;5.310;2023-03-01T05:02:23;25.92;;;9.95;;
75932;SDS011;64803;52.356;5.310;2023-03-01T05:04:49;23.35;;;9.60;;
75932;SDS011;64803;52.356;5.310;2023-03-01T05:07:16;25.20;;;10.27;;
75932;SDS011;64803;52.356;5.310;2023-03-01T05:09:45;27.60;;;11.13;;
75932;SDS011;64803;52.356;5.310;2023-03-01T05:12:12;25.20;;;9.70;;
75932;SDS011;64803;52.356;5.310;2023-03-01T05:14:39;28.48;;;10.15;;
75932;SDS011;64803;52.356;5.310;2023-03-01T05:17:05;26.25;;;11.70;;
75932;SDS011;64803;52.356;5.310;2023-03-01T05:19:31;30.27;;;13.00;;
75932;SDS011;64803;52.356;5.310;2023-03-01T05:21:58;29.40;;;10.75;;
75932;SDS011;64803;52.356;5.310;2023-03-01T05:24:27;28.75;;;11.73;;
75932;SDS011;64803;52.356;5.310;2023-03-01T05:26:54;31.17;;;11.98;;
75932;SDS011;64803;52.356;5.310;2023-03-01T05:29:21;28.40;;;11.15;;
75932;SDS011;64803;52.356;5.310;2023-03-01T05:31:53;30.73;;;11.93;;
75932;SDS011;64803;52.356;5.310;2023-03-01T05:34:25;31.98;;;11.43;;
75932;SDS011;64803;52.356;5.310;2023-03-01T05:36:56;29.27;;;11.48;;
75932;SDS011;64803;52.356;5.310;2023-03-01T05:39:24;23.40;;;9.20;;
75932;SDS011;64803;52.356;5.310;2023-03-01T05:41:53;23.92;;;10.70;;
75932;SDS011;64803;52.356;5.310;2023-03-01T05:44:21;28.60;;;11.20;;
75932;SDS011;64803;52.356;5.310;2023-03-01T05:46:47;27.00;;;10.85;;
75932;SDS011;64803;52.356;5.310;2023-03-01T05:49:13;26.20;;;12.02;;
75932;SDS011;64803;52.356;5.310;2023-03-01T05:51:40;26.00;;;10.30;;
75932;SDS011;64803;52.356;5.310;2023-03-01T05:54:07;28.83;;;11.20;;
75932;SDS011;64803;52.356;5.310;2023-03-01T05:56:33;30.85;;;11.23;;
75932;SDS011;64803;52.356;5.310;2023-03-01T05:59:00;22.90;;;11.15;;
75932;SDS011;64803;52.356;5.310;2023-03-01T06:01:27;24.38;;;9.48;;
75932;SDS011;64803;52.356;5.310;2023-03-01T06:03:53;21.35;;;10.38;;
75932;SDS011;64803;52.356;5.310;2023-03-01T06:06:19;26.38;;;10.25;;
75932;SDS011;64803;52.356;5.310;2023-03-01T06:08:45;26.60;;;10.75;;
75932;SDS011;64803;52.356;5.310;2023-03-01T06:11:11;26.35;;;10.30;;
75932;SDS011;64803;52.356;5.310;2023-03-01T06:13:37;25.92;;;10.95;;
75932;SDS011;64803;52.356;5.310;2023-03-01T06:16:06;24.23;;;10.90;;
75932;SDS011;64803;52.356;5.310;2023-03-01T06:18:33;23.23;;;9.43;;
75932;SDS011;64803;52.356;5.310;2023-03-01T06:20:59;25.38;;;9.23;;
75932;SDS011;64803;52.356;5.310;2023-03-01T06:23:25;50.97;;;12.23;;
75932;SDS011;64803;52.356;5.310;2023-03-01T06:25:51;230.95;;;23.00;;
75932;SDS011;64803;52.356;5.310;2023-03-01T06:28:17;50.95;;;14.43;;
75932;SDS011;64803;52.356;5.310;2023-03-01T06:30:43;59.15;;;16.60;;
75932;SDS011;64803;52.356;5.310;2023-03-01T06:33:09;52.38;;;17.75;;
75932;SDS011;64803;52.356;5.310;2023-03-01T06:35:35;80.90;;;18.55;;
75932;SDS011;64803;52.356;5.310;2023-03-01T06:38:02;150.00;;;18.67;;
75932;SDS011;64803;52.356;5.310;2023-03-01T06:40:30;137.50;;;19.58;;
75932;SDS011;64803;52.356;5.310;2023-03-01T06:42:56;62.75;;;10.30;;
75932;SDS011;64803;52.356;5.310;2023-03-01T06:45:23;114.18;;;18.13;;
75932;SDS011;64803;52.356;5.310;2023-03-01T06:47:50;137.90;;;17.05;;
75932;SDS011;64803;52.356;5.310;2023-03-01T06:50:16;256.77;;;26.27;;
75932;SDS011;64803;52.356;5.310;2023-03-01T06:52:43;294.88;;;25.92;;
75932;SDS011;64803;52.356;5.310;2023-03-01T06:55:10;253.75;;;25.45;;
75932;SDS011;64803;52.356;5.310;2023-03-01T06:57:37;157.13;;;23.67;;
75932;SDS011;64803;52.356;5.310;2023-03-01T07:00:04;138.18;;;19.42;;
75932;SDS011;64803;52.356;5.310;2023-03-01T07:02:31;86.80;;;18.65;;
75932;SDS011;64803;52.356;5.310;2023-03-01T07:04:57;144.93;;;18.75;;
75932;SDS011;64803;52.356;5.310;2023-03-01T07:07:23;147.32;;;22.13;;
75932;SDS011;64803;52.356;5.310;2023-03-01T07:09:49;122.93;;;16.35;;
75932;SDS011;64803;52.356;5.310;2023-03-01T07:12:15;85.25;;;17.85;;
75932;SDS011;64803;52.356;5.310;2023-03-01T07:14:43;81.90;;;17.58;;
75932;SDS011;64803;52.356;5.310;2023-03-01T07:17:09;116.05;;;17.65;;
75932;SDS011;64803;52.356;5.310;2023-03-01T07:19:35;114.03;;;16.13;;
75932;SDS011;64803;52.356;5.310;2023-03-01T07:22:02;111.00;;;18.50;;
75932;SDS011;64803;52.356;5.310;2023-03-01T07:26:55;148.85;;;19.17;;
75932;SDS011;64803;52.356;5.310;2023-03-01T07:29:21;92.57;;;14.10;;
75932;SDS011;64803;52.356;5.310;2023-03-01T07:31:47;100.60;;;17.20;;
75932;SDS011;64803;52.356;5.310;2023-03-01T07:34:13;199.98;;;22.20;;
75932;SDS011;64803;52.356;5.310;2023-03-01T07:36:39;67.40;;;12.68;;
75932;SDS011;64803;52.356;5.310;2023-03-01T07:39:09;57.50;;;13.27;;
75932;SDS011;64803;52.356;5.310;2023-03-01T07:41:36;128.35;;;19.52;;
75932;SDS011;64803;52.356;5.310;2023-03-01T07:44:02;115.90;;;17.90;;
75932;SDS011;64803;52.356;5.310;2023-03-01T07:46:29;91.95;;;17.20;;
75932;SDS011;64803;52.356;5.310;2023-03-01T07:48:55;80.22;;;16.05;;
75932;SDS011;64803;52.356;5.310;2023-03-01T07:51:21;75.38;;;12.00;;
75932;SDS011;64803;52.356;5.310;2023-03-01T07:53:47;58.38;;;11.38;;
75932;SDS011;64803;52.356;5.310;2023-03-01T07:56:14;55.78;;;16.17;;
75932;SDS011;64803;52.356;5.310;2023-03-01T08:01:10;129.48;;;18.20;;
75932;SDS011;64803;52.356;5.310;2023-03-01T08:03:38;109.97;;;16.08;;
75932;SDS011;64803;52.356;5.310;2023-03-01T08:06:06;42.13;;;14.52;;
75932;SDS011;64803;52.356;5.310;2023-03-01T08:08:33;67.72;;;12.18;;
75932;SDS011;64803;52.356;5.310;2023-03-01T08:11:00;28.85;;;10.48;;
75932;SDS011;64803;52.356;5.310;2023-03-01T08:13:28;91.05;;;14.07;;
75932;SDS011;64803;52.356;5.310;2023-03-01T08:16:05;65.03;;;15.27;;
75932;SDS011;64803;52.356;5.310;2023-03-01T08:18:36;58.33;;;16.27;;
75932;SDS011;64803;52.356;5.310;2023-03-01T08:21:07;59.42;;;15.10;;
75932;SDS011;64803;52.356;5.310;2023-03-01T08:23:35;61.65;;;16.17;;
75932;SDS011;64803;52.356;5.310;2023-03-01T08:26:12;62.65;;;14.48;;
75932;SDS011;64803;52.356;5.310;2023-03-01T08:28:39;30.17;;;12.88;;
75932;SDS011;64803;52.356;5.310;2023-03-01T08:31:16;51.17;;;17.42;;
75932;SDS011;64803;52.356;5.310;2023-03-01T08:33:46;34.38;;;15.85;;
75932;SDS011;64803;52.356;5.310;2023-03-01T08:36:17;50.92;;;16.40;;
75932;SDS011;64803;52.356;5.310;2023-03-01T08:38:43;40.33;;;16.20;;
75932;SDS011;64803;52.356;5.310;2023-03-01T08:41:10;47.25;;;16.08;;
75932;SDS011;64803;52.356;5.310;2023-03-01T08:43:36;38.90;;;15.45;;
75932;SDS011;64803;52.356;5.310;2023-03-01T08:46:02;53.20;;;19.85;;
75932;SDS011;64803;52.356;5.310;2023-03-01T08:48:28;35.67;;;15.95;;
75932;SDS011;64803;52.356;5.310;2023-03-01T08:50:54;30.17;;;12.93;;
75932;SDS011;64803;52.356;5.310;2023-03-01T08:53:21;30.70;;;12.65;;
75932;SDS011;64803;52.356;5.310;2023-03-01T08:55:47;29.08;;;11.02;;
75932;SDS011;64803;52.356;5.310;2023-03-01T08:58:13;28.40;;;11.20;;
75932;SDS011;64803;52.356;5.310;2023-03-01T09:00:39;34.70;;;12.30;;
75932;SDS011;64803;52.356;5.310;2023-03-01T09:03:05;43.95;;;17.45;;
75932;SDS011;64803;52.356;5.310;2023-03-01T09:05:32;33.67;;;15.57;;
75932;SDS011;64803;52.356;5.310;2023-03-01T09:07:59;29.83;;;14.10;;
75932;SDS011;64803;52.356;5.310;2023-03-01T09:10:25;33.75;;;14.27;;
75932;SDS011;64803;52.356;5.310;2023-03-01T09:12:51;34.38;;;15.13;;
75932;SDS011;64803;52.356;5.310;2023-03-01T09:15:17;33.20;;;12.70;;
75932;SDS011;64803;52.356;5.310;2023-03-01T09:17:43;33.60;;;14.85;;
75932;SDS011;64803;52.356;5.310;2023-03-01T09:20:09;27.15;;;11.98;;
75932;SDS011;64803;52.356;5.310;2023-03-01T09:22:36;32.20;;;14.05;;
75932;SDS011;64803;52.356;5.310;2023-03-01T09:25:02;31.50;;;14.15;;
75932;SDS011;64803;52.356;5.310;2023-03-01T09:27:28;29.08;;;13.50;;
75932;SDS011;64803;52.356;5.310;2023-03-01T09:29:54;32.75;;;11.85;;
75932;SDS011;64803;52.356;5.310;2023-03-01T09:32:22;33.95;;;15.32;;
75932;SDS011;64803;52.356;5.310;2023-03-01T09:34:48;17.77;;;8.48;;
75932;SDS011;64803;52.356;5.310;2023-03-01T09:37:33;16.92;;;8.07;;
75932;SDS011;64803;52.356;5.310;2023-03-01T09:40:01;19.60;;;9.85;;
75932;SDS011;64803;52.356;5.310;2023-03-01T09:42:29;14.25;;;5.75;;
75932;SDS011;64803;52.356;5.310;2023-03-01T09:45:00;21.25;;;9.98;;
75932;SDS011;64803;52.356;5.310;2023-03-01T09:47:32;14.88;;;7.10;;
75932;SDS011;64803;52.356;5.310;2023-03-01T09:54:58;23.13;;;11.70;;
75932;SDS011;64803;52.356;5.310;2023-03-01T10:00:19;19.15;;;7.00;;
75932;SDS011;64803;52.356;5.310;2023-03-01T10:05:41;29.08;;;10.73;;
75932;SDS011;64803;52.356;5.310;2023-03-01T10:11:02;15.13;;;6.15;;
75932;SDS011;64803;52.356;5.310;2023-03-01T10:16:19;14.85;;;7.65;;
75932;SDS011;64803;52.356;5.310;2023-03-01T10:18:53;22.55;;;8.77;;
75932;SDS011;64803;52.356;5.310;2023-03-01T10:21:25;18.35;;;7.75;;
75932;SDS011;64803;52.356;5.310;2023-03-01T10:23:52;16.65;;;6.63;;
75932;SDS011;64803;52.356;5.310;2023-03-01T10:29:18;10.45;;;5.07;;
75932;SDS011;64803;52.356;5.310;2023-03-01T10:31:52;9.15;;;3.85;;
75932;SDS011;64803;52.356;5.310;2023-03-01T10:34:20;13.60;;;4.95;;
75932;SDS011;64803;52.356;5.310;2023-03-01T10:36:49;10.75;;;3.47;;
75932;SDS011;64803;52.356;5.310;2023-03-01T10:39:22;15.52;;;5.13;;
75932;SDS011;64803;52.356;5.310;2023-03-01T10:41:54;13.73;;;6.68;;
75932;SDS011;64803;52.356;5.310;2023-03-01T10:44:37;11.82;;;4.35;;
75932;SDS011;64803;52.356;5.310;2023-03-01T10:47:29;11.52;;;3.33;;
75932;SDS011;64803;52.356;5.310;2023-03-01T10:50:01;13.07;;;4.80;;
75932;SDS011;64803;52.356;5.310;2023-03-01T10:52:36;5.35;;;1.95;;
75932;SDS011;64803;52.356;5.310;2023-03-01T11:00:53;7.35;;;2.72;;
75932;SDS011;64803;52.356;5.310;2023-03-01T11:03:22;7.90;;;3.25;;
75932;SDS011;64803;52.356;5.310;2023-03-01T11:05:53;5.30;;;2.13;;
75932;SDS011;64803;52.356;5.310;2023-03-01T11:08:30;8.25;;;2.75;;
75932;SDS011;64803;52.356;5.310;2023-03-01T11:11:05;6.95;;;3.00;;
75932;SDS011;64803;52.356;5.310;2023-03-01T11:13:31;12.35;;;4.38;;
75932;SDS011;64803;52.356;5.310;2023-03-01T11:15:58;9.50;;;3.50;;
75932;SDS011;64803;52.356;5.310;2023-03-01T11:18:30;8.05;;;3.25;;
75932;SDS011;64803;52.356;5.310;2023-03-01T11:20:56;10.77;;;4.20;;
75932;SDS011;64803;52.356;5.310;2023-03-01T11:23:25;10.90;;;4.20;;
75932;SDS011;64803;52.356;5.310;2023-03-01T11:25:55;6.90;;;2.67;;
75932;SDS011;64803;52.356;5.310;2023-03-01T11:28:22;11.40;;;4.20;;
75932;SDS011;64803;52.356;5.310;2023-03-01T11:36:03;7.45;;;3.03;;
75932;SDS011;64803;52.356;5.310;2023-03-01T11:38:34;6.72;;;2.50;;
75932;SDS011;64803;52.356;5.310;2023-03-01T11:41:05;5.15;;;2.08;;
75932;SDS011;64803;52.356;5.310;2023-03-01T11:46:24;8.98;;;3.83;;
75932;SDS011;64803;52.356;5.310;2023-03-01T11:49:02;8.75;;;3.42;;
75932;SDS011;64803;52.356;5.310;2023-03-01T11:51:59;12.27;;;3.50;;
75932;SDS011;64803;52.356;5.310;2023-03-01T11:54:30;6.38;;;2.42;;
75932;SDS011;64803;52.356;5.310;2023-03-01T12:05:46;10.63;;;4.30;;
75932;SDS011;64803;52.356;5.310;2023-03-01T12:08:20;8.77;;;3.80;;
75932;SDS011;64803;52.356;5.310;2023-03-01T12:13:56;6.72;;;2.78;;
75932;SDS011;64803;52.356;5.310;2023-03-01T12:20:02;6.93;;;3.22;;
75932;SDS011;64803;52.356;5.310;2023-03-01T12:34:11;8.27;;;3.80;;
75932;SDS011;64803;52.356;5.310;2023-03-01T12:37:52;10.93;;;3.97;;
75932;SDS011;64803;52.356;5.310;2023-03-01T12:45:45;7.85;;;2.55;;
75932;SDS011;64803;52.356;5.310;2023-03-01T12:48:31;9.02;;;4.35;;
75932;SDS011;64803;52.356;5.310;2023-03-01T12:51:03;7.70;;;3.42;;
75932;SDS011;64803;52.356;5.310;2023-03-01T12:53:36;9.40;;;4.30;;
75932;SDS011;64803;52.356;5.310;2023-03-01T12:56:08;8.23;;;3.33;;
75932;SDS011;64803;52.356;5.310;2023-03-01T13:06:40;7.18;;;3.38;;
75932;SDS011;64803;52.356;5.310;2023-03-01T13:11:57;9.50;;;3.80;;
75932;SDS011;64803;52.356;5.310;2023-03-01T13:16:49;6.82;;;2.45;;
75932;SDS011;64803;52.356;5.310;2023-03-01T13:21:48;11.65;;;3.50;;
75932;SDS011;64803;52.356;5.310;2023-03-01T13:29:49;9.93;;;3.95;;
75932;SDS011;64803;52.356;5.310;2023-03-01T13:34:50;8.43;;;3.13;;
75932;SDS011;64803;52.356;5.310;2023-03-01T13:37:27;4.90;;;1.60;;
75932;SDS011;64803;52.356;5.310;2023-03-01T13:39:59;7.55;;;3.15;;
75932;SDS011;64803;52.356;5.310;2023-03-01T13:42:40;7.40;;;3.20;;
75932;SDS011;64803;52.356;5.310;2023-03-01T13:45:20;8.55;;;3.00;;
75932;SDS011;64803;52.356;5.310;2023-03-01T13:47:46;6.50;;;2.28;;
75932;SDS011;64803;52.356;5.310;2023-03-01T13:50:23;9.15;;;2.97;;
75932;SDS011;64803;52.356;5.310;2023-03-01T13:52:53;7.00;;;2.42;;
75932;SDS011;64803;52.356;5.310;2023-03-01T13:58:32;9.52;;;3.38;;
75932;SDS011;64803;52.356;5.310;2023-03-01T14:01:23;6.32;;;2.67;;
75932;SDS011;64803;52.356;5.310;2023-03-01T14:04:00;6.97;;;2.75;;
75932;SDS011;64803;52.356;5.310;2023-03-01T14:06:29;5.97;;;2.47;;
75932;SDS011;64803;52.356;5.310;2023-03-01T14:09:09;5.80;;;2.63;;
75932;SDS011;64803;52.356;5.310;2023-03-01T14:11:47;6.65;;;3.08;;
75932;SDS011;64803;52.356;5.310;2023-03-01T14:14:39;5.30;;;2.28;;
75932;SDS011;64803;52.356;5.310;2023-03-01T14:19:39;8.73;;;3.08;;
75932;SDS011;64803;52.356;5.310;2023-03-01T14:24:50;7.38;;;2.50;;
75932;SDS011;64803;52.356;5.310;2023-03-01T14:27:20;7.13;;;2.95;;
75932;SDS011;64803;52.356;5.310;2023-03-01T14:29:56;6.80;;;2.75;;
75932;SDS011;64803;52.356;5.310;2023-03-01T14:32:30;6.13;;;2.55;;
75932;SDS011;64803;52.356;5.310;2023-03-01T14:34:58;5.15;;;2.15;;
75932;SDS011;64803;52.356;5.310;2023-03-01T14:37:32;7.40;;;3.08;;
75932;SDS011;64803;52.356;5.310;2023-03-01T14:40:00;8.13;;;3.10;;
75932;SDS011;64803;52.356;5.310;2023-03-01T14:42:31;6.88;;;2.67;;
75932;SDS011;64803;52.356;5.310;2023-03-01T14:45:00;5.95;;;2.30;;
75932;SDS011;64803;52.356;5.310;2023-03-01T14:47:32;11.73;;;3.50;;
75932;SDS011;64803;52.356;5.310;2023-03-01T14:50:15;7.43;;;2.78;;
75932;SDS011;64803;52.356;5.310;2023-03-01T14:52:45;7.38;;;2.70;;
75932;SDS011;64803;52.356;5.310;2023-03-01T14:55:15;8.90;;;2.90;;
75932;SDS011;64803;52.356;5.310;2023-03-01T14:57:44;5.88;;;2.40;;
75932;SDS011;64803;52.356;5.310;2023-03-01T15:00:21;6.93;;;2.80;;
75932;SDS011;64803;52.356;5.310;2023-03-01T15:02:51;7.60;;;3.78;;
75932;SDS011;64803;52.356;5.310;2023-03-01T15:05:21;5.32;;;1.98;;
75932;SDS011;64803;52.356;5.310;2023-03-01T15:07:52;9.13;;;3.70;;
75932;SDS011;64803;52.356;5.310;2023-03-01T15:10:23;7.32;;;3.42;;
75932;SDS011;64803;52.356;5.310;2023-03-01T15:12:51;12.40;;;3.47;;
75932;SDS011;64803;52.356;5.310;2023-03-01T15:15:19;7.47;;;2.40;;
75932;SDS011;64803;52.356;5.310;2023-03-01T15:17:56;4.90;;;2.13;;
75932;SDS011;64803;52.356;5.310;2023-03-01T15:20:26;7.65;;;2.83;;
75932;SDS011;64803;52.356;5.310;2023-03-01T15:22:55;7.17;;;2.80;;
75932;SDS011;64803;52.356;5.310;2023-03-01T15:25:23;6.55;;;2.03;;
75932;SDS011;64803;52.356;5.310;2023-03-01T15:27:54;7.32;;;2.88;;
75932;SDS011;64803;52.356;5.310;2023-03-01T15:30:26;7.22;;;2.45;;
75932;SDS011;64803;52.356;5.310;2023-03-01T15:35:45;7.97;;;3.22;;
75932;SDS011;64803;52.356;5.310;2023-03-01T15:38:29;5.60;;;2.63;;
75932;SDS011;64803;52.356;5.310;2023-03-01T15:41:49;7.00;;;2.70;;
75932;SDS011;64803;52.356;5.310;2023-03-01T15:44:26;6.35;;;2.75;;
75932;SDS011;64803;52.356;5.310;2023-03-01T15:46:56;5.70;;;2.15;;
75932;SDS011;64803;52.356;5.310;2023-03-01T15:49:41;8.93;;;3.20;;
75932;SDS011;64803;52.356;5.310;2023-03-01T15:52:13;5.90;;;2.45;;
75932;SDS011;64803;52.356;5.310;2023-03-01T15:57:21;8.85;;;3.83;;
75932;SDS011;64803;52.356;5.310;2023-03-01T15:59:47;6.03;;;2.08;;
75932;SDS011;64803;52.356;5.310;2023-03-01T16:02:13;11.68;;;3.42;;
75932;SDS011;64803;52.356;5.310;2023-03-01T16:04:39;13.77;;;3.25;;
75932;SDS011;64803;52.356;5.310;2023-03-01T16:07:05;6.20;;;2.13;;
75932;SDS011;64803;52.356;5.310;2023-03-01T16:09:31;12.48;;;4.07;;
75932;SDS011;64803;52.356;5.310;2023-03-01T16:11:57;7.38;;;3.00;;
75932;SDS011;64803;52.356;5.310;2023-03-01T16:14:24;8.05;;;2.95;;
75932;SDS011;64803;52.356;5.310;2023-03-01T16:16:50;6.60;;;2.75;;
75932;SDS011;64803;52.356;5.310;2023-03-01T16:19:16;8.18;;;3.00;;
75932;SDS011;64803;52.356;5.310;2023-03-01T16:21:42;6.10;;;2.30;;
75932;SDS011;64803;52.356;5.310;2023-03-01T16:24:09;9.82;;;3.83;;
75932;SDS011;64803;52.356;5.310;2023-03-01T16:26:36;5.47;;;2.55;;
75932;SDS011;64803;52.356;5.310;2023-03-01T16:29:03;9.90;;;4.22;;
75932;SDS011;64803;52.356;5.310;2023-03-01T16:31:30;9.35;;;2.97;;
75932;SDS011;64803;52.356;5.310;2023-03-01T16:33:56;9.20;;;3.53;;
75932;SDS011;64803;52.356;5.310;2023-03-01T16:36:25;8.80;;;2.90;;
75932;SDS011;64803;52.356;5.310;2023-03-01T16:38:53;7.18;;;3.47;;
75932;SDS011;64803;52.356;5.310;2023-03-01T16:41:23;8.07;;;3.03;;
75932;SDS011;64803;52.356;5.310;2023-03-01T16:43:49;11.15;;;4.10;;
75932;SDS011;64803;52.356;5.310;2023-03-01T16:46:17;10.13;;;3.83;;
75932;SDS011;64803;52.356;5.310;2023-03-01T16:48:45;11.68;;;3.83;;
75932;SDS011;64803;52.356;5.310;2023-03-01T16:51:11;8.70;;;3.95;;
75932;SDS011;64803;52.356;5.310;2023-03-01T16:53:38;6.43;;;2.80;;